Rawlins, WY

10:23 AM MDT on August 28, 2014 (GMT -0600)
Downtown | Change Station
CLOSE
Current Station
Personal Weather Station
Location: Sinclair, Wy
Elevation: 6611 ft
Nearby Weather Stations

Elev 6611 ft 41.78 °N, 107.12 °W | Updated 2 seconds ago

Clear
Clear
62.5 °F
Feels Like 62.5 °F
N
9.7
Wind Variable Wind from West
Gusts 16.5 mph

Today
High -- | Low -- °F
--% Chance of Precip.
Yesterday
High -- | Low -- °F
Precip. -- in
6:30 AM 7:48 PM
Waxing Crescent, 9% visible
Pressure 30.09 in
Visibility 10.0 miles
Clouds Clear
Dew Point 55 °F
Humidity 76%
Rainfall 0.02 in
Snow Depth Not available.
UV 5 out of 12
Pollen 7.80 out of 12
Air Quality Not available.
Flu Activity Not available.
METAR KRWL 281553Z AUTO 25015KT 10SM CLR 14/10 A3028 RMK AO2 SLP189 T01390100

More Conditions Fewer Conditions

Pressure 30.09 in
Visibility 10.0 miles
Clouds Clear
Dew Point 55 °F
Humidity 76%
Rainfall 0.02 in
Snow Depth Not available.
UV 5 out of 12
Pollen 7.80 out of 12
Air Quality Not available.
Flu Activity Not available.
METAR KRWL 281553Z AUTO 25015KT 10SM CLR 14/10 A3028 RMK AO2 SLP189 T01390100

More Conditions Fewer Conditions

10-Day Weather Forecast

Almanac

Astronomy

Aug. 28, 2014 Rise Set
Actual Time 6:30 AM MDT 7:48 PM MDT
Civil Twilight 6:01 AM MDT 8:17 PM MDT
Nautical Twilight 5:27 AM MDT 8:52 PM MDT
Astronomical Twilight 4:50 AM MDT 9:28 PM MDT
Moon 9:29 AM MDT 9:10 PM MDT
Length of Visible Light 14h 15m
Length of Day
13h 18m
Tomorrow will be 2m 40s shorter.
Waxing Crescent, 9% of the Moon is Illuminated
Today
Waxing Crescent
Sep 2
First Quarter
Sep 8
Full
Sep 15
Last Quarter
Sep 24
New

Today's Extremes

State Highs State Lows

Community

WunderPhotos

Upload Photos

1,748,008 photos uploaded!

Nearby

Snow Depth

Station Depth Elevation
Divide Peak 0 in 8860 ft
Webber Springs 0 in 9250 ft
Old Battle 1 in 9920 ft
South Brush Creek 0 in 8440 ft
Battle Mountain 0 in 7440 ft

Earthquake Activity

City Distance Mag. Time & Date
No recent earthquake activity has been reported nearby.
Minimum magnitude displayed is 2.5.

Coastal Water Temperatures

Place Temperature
No Stations Reporting

Nearby Weather Stations